sensor_id;sensor_type;location;lat;lon;timestamp;temperature;humidity
16823;DHT22;8528;49.976;11.858;2023-04-24T00:01:05;9.30;99.90
16823;DHT22;8528;49.976;11.858;2023-04-24T00:03:34;9.20;99.90
16823;DHT22;8528;49.976;11.858;2023-04-24T00:06:01;9.30;99.90
16823;DHT22;8528;49.976;11.858;2023-04-24T00:08:29;9.30;99.90
16823;DHT22;8528;49.976;11.858;2023-04-24T00:10:56;9.30;99.90
16823;DHT22;8528;49.976;11.858;2023-04-24T00:13:23;9.30;99.90
16823;DHT22;8528;49.976;11.858;2023-04-24T00:15:50;9.20;99.90
16823;DHT22;8528;49.976;11.858;2023-04-24T00:18:17;9.20;99.90
16823;DHT22;8528;49.976;11.858;2023-04-24T00:20:43;9.20;99.90
16823;DHT22;8528;49.976;11.858;2023-04-24T00:23:11;9.20;99.90
16823;DHT22;8528;49.976;11.858;2023-04-24T00:25:37;9.20;99.90
16823;DHT22;8528;49.976;11.858;2023-04-24T00:28:04;9.20;99.90
16823;DHT22;8528;49.976;11.858;2023-04-24T00:30:31;9.20;99.90
16823;DHT22;8528;49.976;11.858;2023-04-24T00:32:58;9.10;99.90
16823;DHT22;8528;49.976;11.858;2023-04-24T00:35:25;9.10;99.90
16823;DHT22;8528;49.976;11.858;2023-04-24T00:37:51;9.10;99.90
16823;DHT22;8528;49.976;11.858;2023-04-24T00:40:18;9.10;99.90
16823;DHT22;8528;49.976;11.858;2023-04-24T00:42:45;9.20;99.90
16823;DHT22;8528;49.976;11.858;2023-04-24T00:45:12;9.20;99.90
16823;DHT22;8528;49.976;11.858;2023-04-24T00:47:40;9.30;99.90
16823;DHT22;8528;49.976;11.858;2023-04-24T00:50:08;9.20;99.90
16823;DHT22;8528;49.976;11.858;2023-04-24T00:52:35;9.20;99.90
16823;DHT22;8528;49.976;11.858;2023-04-24T00:55:04;9.30;99.90
16823;DHT22;8528;49.976;11.858;2023-04-24T00:57:32;9.30;99.90
16823;DHT22;8528;49.976;11.858;2023-04-24T00:59:59;9.30;99.90
16823;DHT22;8528;49.976;11.858;2023-04-24T01:02:26;9.30;99.90
16823;DHT22;8528;49.976;11.858;2023-04-24T01:04:53;9.20;99.90
16823;DHT22;8528;49.976;11.858;2023-04-24T01:07:20;9.20;99.90
16823;DHT22;8528;49.976;11.858;2023-04-24T01:09:48;9.20;99.90
16823;DHT22;8528;49.976;11.858;2023-04-24T01:12:18;9.20;99.90
16823;DHT22;8528;49.976;11.858;2023-04-24T01:14:45;9.20;99.90
16823;DHT22;8528;49.976;11.858;2023-04-24T01:17:11;9.10;99.90
16823;DHT22;8528;49.976;11.858;2023-04-24T01:19:39;9.10;99.90
16823;DHT22;8528;49.976;11.858;2023-04-24T01:22:11;8.90;99.90
16823;DHT22;8528;49.976;11.858;2023-04-24T01:24:39;8.90;99.90
16823;DHT22;8528;49.976;11.858;2023-04-24T01:27:06;8.80;99.90
16823;DHT22;8528;49.976;11.858;2023-04-24T01:29:34;8.80;99.90
16823;DHT22;8528;49.976;11.858;2023-04-24T01:32:01;8.90;99.90
16823;DHT22;8528;49.976;11.858;2023-04-24T01:34:31;8.90;99.90
16823;DHT22;8528;49.976;11.858;2023-04-24T01:36:58;9.00;99.90
16823;DHT22;8528;49.976;11.858;2023-04-24T01:39:25;9.00;99.90
16823;DHT22;8528;49.976;11.858;2023-04-24T01:41:55;9.10;99.90
16823;DHT22;8528;49.976;11.858;2023-04-24T01:44:23;9.10;99.90
16823;DHT22;8528;49.976;11.858;2023-04-24T01:46:49;9.10;99.90
16823;DHT22;8528;49.976;11.858;2023-04-24T01:49:17;9.00;99.90
16823;DHT22;8528;49.976;11.858;2023-04-24T01:51:44;9.10;99.90
16823;DHT22;8528;49.976;11.858;2023-04-24T01:54:11;9.10;99.90
16823;DHT22;8528;49.976;11.858;2023-04-24T01:56:41;9.00;99.90
16823;DHT22;8528;49.976;11.858;2023-04-24T01:59:12;8.90;99.90
16823;DHT22;8528;49.976;11.858;2023-04-24T02:01:39;8.90;99.90
16823;DHT22;8528;49.976;11.858;2023-04-24T02:04:07;8.80;99.90
16823;DHT22;8528;49.976;11.858;2023-04-24T02:06:35;8.80;99.90
16823;DHT22;8528;49.976;11.858;2023-04-24T02:09:02;8.80;99.90
16823;DHT22;8528;49.976;11.858;2023-04-24T02:11:31;8.80;99.90
16823;DHT22;8528;49.976;11.858;2023-04-24T02:13:58;8.80;99.90
16823;DHT22;8528;49.976;11.858;2023-04-24T02:16:24;8.80;99.90
16823;DHT22;8528;49.976;11.858;2023-04-24T02:18:51;8.80;99.90
16823;DHT22;8528;49.976;11.858;2023-04-24T02:21:18;8.80;99.90
16823;DHT22;8528;49.976;11.858;2023-04-24T02:23:45;8.80;99.90
16823;DHT22;8528;49.976;11.858;2023-04-24T02:26:12;8.90;99.90
16823;DHT22;8528;49.976;11.858;2023-04-24T02:28:39;8.90;99.90
16823;DHT22;8528;49.976;11.858;2023-04-24T02:31:06;8.90;99.90
16823;DHT22;8528;49.976;11.858;2023-04-24T02:33:33;8.90;99.90
16823;DHT22;8528;49.976;11.858;2023-04-24T02:35:59;8.90;99.90
16823;DHT22;8528;49.976;11.858;2023-04-24T02:38:27;8.90;99.90
16823;DHT22;8528;49.976;11.858;2023-04-24T02:40:53;9.00;99.90
16823;DHT22;8528;49.976;11.858;2023-04-24T02:43:20;9.00;99.90
16823;DHT22;8528;49.976;11.858;2023-04-24T02:45:47;9.00;99.90
16823;DHT22;8528;49.976;11.858;2023-04-24T02:48:14;9.00;99.90
16823;DHT22;8528;49.976;11.858;2023-04-24T02:50:41;9.10;99.90
16823;DHT22;8528;49.976;11.858;2023-04-24T02:53:08;9.10;99.90
16823;DHT22;8528;49.976;11.858;2023-04-24T02:55:34;9.10;99.90
16823;DHT22;8528;49.976;11.858;2023-04-24T02:58:02;9.10;99.90
16823;DHT22;8528;49.976;11.858;2023-04-24T03:00:29;9.10;99.90
16823;DHT22;8528;49.976;11.858;2023-04-24T03:02:56;9.10;99.90
16823;DHT22;8528;49.976;11.858;2023-04-24T03:05:23;9.00;99.90
16823;DHT22;8528;49.976;11.858;2023-04-24T03:07:50;9.10;99.90
16823;DHT22;8528;49.976;11.858;2023-04-24T03:10:19;9.00;99.90
16823;DHT22;8528;49.976;11.858;2023-04-24T03:12:46;9.00;99.90
16823;DHT22;8528;49.976;11.858;2023-04-24T03:15:12;9.00;99.90
16823;DHT22;8528;49.976;11.858;2023-04-24T03:17:39;9.00;99.90
16823;DHT22;8528;49.976;11.858;2023-04-24T03:20:07;9.00;99.90
16823;DHT22;8528;49.976;11.858;2023-04-24T03:22:37;9.00;99.90
16823;DHT22;8528;49.976;11.858;2023-04-24T03:25:04;9.00;99.90
16823;DHT22;8528;49.976;11.858;2023-04-24T03:27:31;9.00;99.90
16823;DHT22;8528;49.976;11.858;2023-04-24T03:29:58;8.90;99.90
16823;DHT22;8528;49.976;11.858;2023-04-24T03:32:24;8.90;99.90
16823;DHT22;8528;49.976;11.858;2023-04-24T03:34:51;8.90;99.90
16823;DHT22;8528;49.976;11.858;2023-04-24T03:37:18;8.90;99.90
16823;DHT22;8528;49.976;11.858;2023-04-24T03:39:45;8.90;99.90
16823;DHT22;8528;49.976;11.858;2023-04-24T03:42:11;8.90;99.90
16823;DHT22;8528;49.976;11.858;2023-04-24T03:44:38;8.90;99.90
16823;DHT22;8528;49.976;11.858;2023-04-24T03:47:05;8.90;99.90
16823;DHT22;8528;49.976;11.858;2023-04-24T03:49:32;8.90;99.90
16823;DHT22;8528;49.976;11.858;2023-04-24T03:51:59;8.90;99.90
16823;DHT22;8528;49.976;11.858;2023-04-24T03:54:25;8.90;99.90
16823;DHT22;8528;49.976;11.858;2023-04-24T03:56:52;8.90;99.90
16823;DHT22;8528;49.976;11.858;2023-04-24T03:59:20;8.90;99.90
16823;DHT22;8528;49.976;11.858;2023-04-24T04:01:46;8.90;99.90
16823;DHT22;8528;49.976;11.858;2023-04-24T04:04:13;8.90;99.90
16823;DHT22;8528;49.976;11.858;2023-04-24T04:06:41;8.90;99.90
16823;DHT22;8528;49.976;11.858;2023-04-24T04:09:08;8.90;99.90
16823;DHT22;8528;49.976;11.858;2023-04-24T04:11:36;8.90;99.90
16823;DHT22;8528;49.976;11.858;2023-04-24T04:14:03;8.90;99.90
16823;DHT22;8528;49.976;11.858;2023-04-24T04:16:30;8.80;99.90
16823;DHT22;8528;49.976;11.858;2023-04-24T04:18:57;8.80;99.90
16823;DHT22;8528;49.976;11.858;2023-04-24T04:21:24;8.80;99.90
16823;DHT22;8528;49.976;11.858;2023-04-24T04:23:50;8.90;99.90
16823;DHT22;8528;49.976;11.858;2023-04-24T04:26:17;8.90;99.90
16823;DHT22;8528;49.976;11.858;2023-04-24T04:28:45;8.90;99.90
16823;DHT22;8528;49.976;11.858;2023-04-24T04:31:12;8.90;99.90
16823;DHT22;8528;49.976;11.858;2023-04-24T04:33:39;8.90;99.90
16823;DHT22;8528;49.976;11.858;2023-04-24T04:36:06;8.90;99.90
16823;DHT22;8528;49.976;11.858;2023-04-24T04:38:33;8.90;99.90
16823;DHT22;8528;49.976;11.858;2023-04-24T04:41:00;8.90;99.90
16823;DHT22;8528;49.976;11.858;2023-04-24T04:43:27;8.90;99.90
16823;DHT22;8528;49.976;11.858;2023-04-24T04:45:53;8.90;99.90
16823;DHT22;8528;49.976;11.858;2023-04-24T04:48:21;8.90;99.90
16823;DHT22;8528;49.976;11.858;2023-04-24T04:50:48;8.90;99.90
16823;DHT22;8528;49.976;11.858;2023-04-24T04:53:15;8.90;99.90
16823;DHT22;8528;49.976;11.858;2023-04-24T04:55:42;8.90;99.90
16823;DHT22;8528;49.976;11.858;2023-04-24T04:58:09;8.90;99.90
16823;DHT22;8528;49.976;11.858;2023-04-24T05:00:36;8.90;99.90
16823;DHT22;8528;49.976;11.858;2023-04-24T05:03:03;8.90;99.90
16823;DHT22;8528;49.976;11.858;2023-04-24T05:05:46;8.90;99.90
16823;DHT22;8528;49.976;11.858;2023-04-24T05:08:13;9.00;99.90
16823;DHT22;8528;49.976;11.858;2023-04-24T05:10:52;9.00;99.90
16823;DHT22;8528;49.976;11.858;2023-04-24T05:13:19;9.00;99.90
16823;DHT22;8528;49.976;11.858;2023-04-24T05:15:54;9.10;99.90
16823;DHT22;8528;49.976;11.858;2023-04-24T05:18:21;9.10;99.90
16823;DHT22;8528;49.976;11.858;2023-04-24T05:20:47;9.10;99.90
16823;DHT22;8528;49.976;11.858;2023-04-24T05:23:14;9.10;99.90
16823;DHT22;8528;49.976;11.858;2023-04-24T05:25:41;9.10;99.90
16823;DHT22;8528;49.976;11.858;2023-04-24T05:28:08;9.10;99.90
16823;DHT22;8528;49.976;11.858;2023-04-24T05:30:35;9.10;99.90
16823;DHT22;8528;49.976;11.858;2023-04-24T05:33:01;9.10;99.90
16823;DHT22;8528;49.976;11.858;2023-04-24T05:35:29;9.10;99.90
16823;DHT22;8528;49.976;11.858;2023-04-24T05:37:56;9.10;99.90
16823;DHT22;8528;49.976;11.858;2023-04-24T05:40:22;9.10;99.90
16823;DHT22;8528;49.976;11.858;2023-04-24T05:42:49;9.10;99.90
16823;DHT22;8528;49.976;11.858;2023-04-24T05:45:16;9.20;99.90
16823;DHT22;8528;49.976;11.858;2023-04-24T05:47:43;9.20;99.90
16823;DHT22;8528;49.976;11.858;2023-04-24T05:50:11;9.20;99.90
16823;DHT22;8528;49.976;11.858;2023-04-24T05:52:37;9.20;99.90
16823;DHT22;8528;49.976;11.858;2023-04-24T05:55:05;9.20;99.90
16823;DHT22;8528;49.976;11.858;2023-04-24T05:57:31;9.30;99.90
16823;DHT22;8528;49.976;11.858;2023-04-24T05:59:58;9.30;99.90
16823;DHT22;8528;49.976;11.858;2023-04-24T06:02:25;9.30;99.90
16823;DHT22;8528;49.976;11.858;2023-04-24T06:04:52;9.40;99.90
16823;DHT22;8528;49.976;11.858;2023-04-24T06:07:19;9.40;99.90
16823;DHT22;8528;49.976;11.858;2023-04-24T06:09:47;9.50;99.90
16823;DHT22;8528;49.976;11.858;2023-04-24T06:12:13;9.50;99.90
16823;DHT22;8528;49.976;11.858;2023-04-24T06:14:40;9.60;99.90
16823;DHT22;8528;49.976;11.858;2023-04-24T06:17:06;9.70;99.90
16823;DHT22;8528;49.976;11.858;2023-04-24T06:19:33;9.80;99.90
16823;DHT22;8528;49.976;11.858;2023-04-24T06:22:00;9.80;99.90
16823;DHT22;8528;49.976;11.858;2023-04-24T06:24:27;9.90;99.90
16823;DHT22;8528;49.976;11.858;2023-04-24T06:26:55;9.90;99.90
16823;DHT22;8528;49.976;11.858;2023-04-24T06:29:23;9.90;99.90
16823;DHT22;8528;49.976;11.858;2023-04-24T06:31:50;10.00;99.90
16823;DHT22;8528;49.976;11.858;2023-04-24T06:34:16;10.00;99.90
16823;DHT22;8528;49.976;11.858;2023-04-24T06:36:43;9.90;99.90
16823;DHT22;8528;49.976;11.858;2023-04-24T06:39:10;10.10;99.90
16823;DHT22;8528;49.976;11.858;2023-04-24T06:41:37;10.40;99.90
16823;DHT22;8528;49.976;11.858;2023-04-24T06:44:04;10.90;99.90
16823;DHT22;8528;49.976;11.858;2023-04-24T06:46:30;11.30;99.90
16823;DHT22;8528;49.976;11.858;2023-04-24T06:48:57;11.70;99.90
16823;DHT22;8528;49.976;11.858;2023-04-24T06:51:25;12.00;99.90
16823;DHT22;8528;49.976;11.858;2023-04-24T06:53:53;12.00;99.90
16823;DHT22;8528;49.976;11.858;2023-04-24T06:56:20;12.00;99.90
16823;DHT22;8528;49.976;11.858;2023-04-24T06:58:47;11.90;99.90
16823;DHT22;8528;49.976;11.858;2023-04-24T07:01:14;11.90;99.90
16823;DHT22;8528;49.976;11.858;2023-04-24T07:03:40;11.90;99.90
16823;DHT22;8528;49.976;11.858;2023-04-24T07:06:07;11.80;99.90
16823;DHT22;8528;49.976;11.858;2023-04-24T07:08:34;11.90;99.90
16823;DHT22;8528;49.976;11.858;2023-04-24T07:11:02;12.10;99.90
16823;DHT22;8528;49.976;11.858;2023-04-24T07:13:29;12.50;99.90
16823;DHT22;8528;49.976;11.858;2023-04-24T07:15:58;12.50;99.90
16823;DHT22;8528;49.976;11.858;2023-04-24T07:18:24;12.30;99.90
16823;DHT22;8528;49.976;11.858;2023-04-24T07:20:51;12.00;99.90
16823;DHT22;8528;49.976;11.858;2023-04-24T07:23:19;12.00;99.90
16823;DHT22;8528;49.976;11.858;2023-04-24T07:25:46;11.80;99.90
16823;DHT22;8528;49.976;11.858;2023-04-24T07:28:13;11.50;99.90
16823;DHT22;8528;49.976;11.858;2023-04-24T07:30:40;11.00;99.90
16823;DHT22;8528;49.976;11.858;2023-04-24T07:33:06;10.50;99.90
16823;DHT22;8528;49.976;11.858;2023-04-24T07:35:33;10.10;99.90
16823;DHT22;8528;49.976;11.858;2023-04-24T07:38:01;9.80;99.90
16823;DHT22;8528;49.976;11.858;2023-04-24T07:40:28;9.60;99.90
16823;DHT22;8528;49.976;11.858;2023-04-24T07:43:22;9.60;99.90
16823;DHT22;8528;49.976;11.858;2023-04-24T07:45:51;9.50;99.90
16823;DHT22;8528;49.976;11.858;2023-04-24T07:48:17;9.50;99.90
16823;DHT22;8528;49.976;11.858;2023-04-24T07:50:44;9.40;99.90
16823;DHT22;8528;49.976;11.858;2023-04-24T07:53:11;9.40;99.90
16823;DHT22;8528;49.976;11.858;2023-04-24T07:55:38;9.50;99.90
16823;DHT22;8528;49.976;11.858;2023-04-24T07:58:04;9.50;99.90
16823;DHT22;8528;49.976;11.858;2023-04-24T08:00:31;9.70;99.90
16823;DHT22;8528;49.976;11.858;2023-04-24T08:02:58;10.00;99.90
16823;DHT22;8528;49.976;11.858;2023-04-24T08:05:25;10.20;99.90
16823;DHT22;8528;49.976;11.858;2023-04-24T08:07:54;10.40;99.90
16823;DHT22;8528;49.976;11.858;2023-04-24T08:10:23;10.70;99.90
16823;DHT22;8528;49.976;11.858;2023-04-24T08:12:49;10.90;99.90
16823;DHT22;8528;49.976;11.858;2023-04-24T08:15:17;11.10;99.90
16823;DHT22;8528;49.976;11.858;2023-04-24T08:17:43;11.40;99.90
16823;DHT22;8528;49.976;11.858;2023-04-24T08:20:11;11.70;99.90
16823;DHT22;8528;49.976;11.858;2023-04-24T08:22:41;12.20;99.90
16823;DHT22;8528;49.976;11.858;2023-04-24T08:25:10;12.60;99.90
16823;DHT22;8528;49.976;11.858;2023-04-24T08:27:37;13.20;99.90
16823;DHT22;8528;49.976;11.858;2023-04-24T08:30:04;13.90;99.90
16823;DHT22;8528;49.976;11.858;2023-04-24T08:32:31;14.00;99.90
16823;DHT22;8528;49.976;11.858;2023-04-24T08:34:59;14.20;99.90
16823;DHT22;8528;49.976;11.858;2023-04-24T08:37:27;15.40;99.90
16823;DHT22;8528;49.976;11.858;2023-04-24T08:39:54;16.00;99.90
16823;DHT22;8528;49.976;11.858;2023-04-24T08:42:21;16.90;99.90
16823;DHT22;8528;49.976;11.858;2023-04-24T08:44:49;18.00;99.90
16823;DHT22;8528;49.976;11.858;2023-04-24T08:47:16;19.60;99.90
16823;DHT22;8528;49.976;11.858;2023-04-24T08:49:44;20.40;93.90
16823;DHT22;8528;49.976;11.858;2023-04-24T08:52:12;19.40;90.70
16823;DHT22;8528;49.976;11.858;2023-04-24T08:54:41;18.80;91.40
16823;DHT22;8528;49.976;11.858;2023-04-24T08:57:10;18.20;92.20
16823;DHT22;8528;49.976;11.858;2023-04-24T08:59:38;18.70;94.80
16823;DHT22;8528;49.976;11.858;2023-04-24T09:02:05;20.30;90.30
16823;DHT22;8528;49.976;11.858;2023-04-24T09:04:33;20.60;83.60
16823;DHT22;8528;49.976;11.858;2023-04-24T09:07:02;20.50;82.00
16823;DHT22;8528;49.976;11.858;2023-04-24T09:09:30;20.60;76.90
16823;DHT22;8528;49.976;11.858;2023-04-24T09:11:59;20.00;79.30
16823;DHT22;8528;49.976;11.858;2023-04-24T09:14:27;19.90;79.00
16823;DHT22;8528;49.976;11.858;2023-04-24T09:16:54;19.40;80.70
16823;DHT22;8528;49.976;11.858;2023-04-24T09:19:21;18.60;81.00
16823;DHT22;8528;49.976;11.858;2023-04-24T09:21:48;17.20;84.70
16823;DHT22;8528;49.976;11.858;2023-04-24T09:24:20;16.80;89.20
16823;DHT22;8528;49.976;11.858;2023-04-24T09:26:56;16.70;89.60
16823;DHT22;8528;49.976;11.858;2023-04-24T09:29:28;16.60;89.20
16823;DHT22;8528;49.976;11.858;2023-04-24T09:31:55;16.20;90.10
16823;DHT22;8528;49.976;11.858;2023-04-24T09:34:23;15.50;92.40
16823;DHT22;8528;49.976;11.858;2023-04-24T09:36:50;15.20;92.60
16823;DHT22;8528;49.976;11.858;2023-04-24T09:39:18;15.00;93.70
16823;DHT22;8528;49.976;11.858;2023-04-24T09:44:22;15.00;94.70
16823;DHT22;8528;49.976;11.858;2023-04-24T09:46:57;14.90;94.40
16823;DHT22;8528;49.976;11.858;2023-04-24T09:49:31;14.50;95.80
16823;DHT22;8528;49.976;11.858;2023-04-24T09:52:08;14.20;96.80
16823;DHT22;8528;49.976;11.858;2023-04-24T09:54:36;13.90;95.30
16823;DHT22;8528;49.976;11.858;2023-04-24T09:57:09;13.50;96.70
16823;DHT22;8528;49.976;11.858;2023-04-24T09:59:42;14.20;96.20
16823;DHT22;8528;49.976;11.858;2023-04-24T10:02:20;15.90;94.40
16823;DHT22;8528;49.976;11.858;2023-04-24T10:04:55;17.20;91.00
16823;DHT22;8528;49.976;11.858;2023-04-24T10:07:26;17.30;88.40
16823;DHT22;8528;49.976;11.858;2023-04-24T10:09:53;16.80;88.70
16823;DHT22;8528;49.976;11.858;2023-04-24T10:12:21;16.00;87.00
16823;DHT22;8528;49.976;11.858;2023-04-24T10:14:49;14.90;89.80
16823;DHT22;8528;49.976;11.858;2023-04-24T10:17:17;14.50;93.00
16823;DHT22;8528;49.976;11.858;2023-04-24T10:19:45;14.80;91.30
16823;DHT22;8528;49.976;11.858;2023-04-24T10:22:14;15.10;92.20
16823;DHT22;8528;49.976;11.858;2023-04-24T10:24:44;15.80;91.40
16823;DHT22;8528;49.976;11.858;2023-04-24T10:27:12;16.30;89.60
16823;DHT22;8528;49.976;11.858;2023-04-24T10:29:43;16.30;87.50
16823;DHT22;8528;49.976;11.858;2023-04-24T10:32:11;15.70;88.10
16823;DHT22;8528;49.976;11.858;2023-04-24T10:34:38;14.80;90.30
16823;DHT22;8528;49.976;11.858;2023-04-24T10:37:05;14.00;91.40
16823;DHT22;8528;49.976;11.858;2023-04-24T10:39:32;13.50;93.20
16823;DHT22;8528;49.976;11.858;2023-04-24T10:42:00;13.70;92.00
16823;DHT22;8528;49.976;11.858;2023-04-24T10:44:35;13.60;91.80
16823;DHT22;8528;49.976;11.858;2023-04-24T10:47:03;13.20;92.10
16823;DHT22;8528;49.976;11.858;2023-04-24T10:49:31;12.90;93.60
16823;DHT22;8528;49.976;11.858;2023-04-24T10:52:02;12.80;94.60
16823;DHT22;8528;49.976;11.858;2023-04-24T10:54:45;12.80;94.90
16823;DHT22;8528;49.976;11.858;2023-04-24T10:59:46;12.90;95.20
16823;DHT22;8528;49.976;11.858;2023-04-24T11:02:17;13.00;95.50
16823;DHT22;8528;49.976;11.858;2023-04-24T11:04:44;13.20;96.00
16823;DHT22;8528;49.976;11.858;2023-04-24T11:07:12;13.10;95.30
16823;DHT22;8528;49.976;11.858;2023-04-24T11:09:41;13.00;94.70
16823;DHT22;8528;49.976;11.858;2023-04-24T11:12:11;13.00;95.60
16823;DHT22;8528;49.976;11.858;2023-04-24T11:17:31;13.00;96.50
16823;DHT22;8528;49.976;11.858;2023-04-24T11:22:52;12.80;96.20
16823;DHT22;8528;49.976;11.858;2023-04-24T11:25:21;13.20;96.90
16823;DHT22;8528;49.976;11.858;2023-04-24T11:27:49;15.00;93.90
16823;DHT22;8528;49.976;11.858;2023-04-24T11:30:20;15.80;88.30
16823;DHT22;8528;49.976;11.858;2023-04-24T11:32:49;15.50;91.10
16823;DHT22;8528;49.976;11.858;2023-04-24T11:35:23;15.60;91.60
16823;DHT22;8528;49.976;11.858;2023-04-24T11:37:55;15.10;90.90
16823;DHT22;8528;49.976;11.858;2023-04-24T11:40:24;14.70;91.70
16823;DHT22;8528;49.976;11.858;2023-04-24T11:42:53;14.30;93.10
16823;DHT22;8528;49.976;11.858;2023-04-24T11:45:27;13.80;93.40
16823;DHT22;8528;49.976;11.858;2023-04-24T11:47:54;13.40;93.70
16823;DHT22;8528;49.976;11.858;2023-04-24T11:50:25;12.80;94.00
16823;DHT22;8528;49.976;11.858;2023-04-24T11:52:53;12.30;97.70
16823;DHT22;8528;49.976;11.858;2023-04-24T11:55:23;12.30;97.60
16823;DHT22;8528;49.976;11.858;2023-04-24T11:57:55;13.00;95.70
16823;DHT22;8528;49.976;11.858;2023-04-24T12:00:31;14.00;92.10
16823;DHT22;8528;49.976;11.858;2023-04-24T12:03:11;14.30;91.60
16823;DHT22;8528;49.976;11.858;2023-04-24T12:05:39;14.50;90.10
16823;DHT22;8528;49.976;11.858;2023-04-24T12:08:06;15.30;90.80
16823;DHT22;8528;49.976;11.858;2023-04-24T12:10:34;16.70;82.90
16823;DHT22;8528;49.976;11.858;2023-04-24T12:13:01;17.80;76.70
16823;DHT22;8528;49.976;11.858;2023-04-24T12:15:28;18.70;75.40
16823;DHT22;8528;49.976;11.858;2023-04-24T12:17:56;20.40;70.10
16823;DHT22;8528;49.976;11.858;2023-04-24T12:20:29;22.40;65.80
16823;DHT22;8528;49.976;11.858;2023-04-24T12:22:57;23.60;54.00
16823;DHT22;8528;49.976;11.858;2023-04-24T12:25:29;22.40;53.20
16823;DHT22;8528;49.976;11.858;2023-04-24T12:30:34;20.90;57.50
16823;DHT22;8528;49.976;11.858;2023-04-24T12:33:02;20.10;59.10
16823;DHT22;8528;49.976;11.858;2023-04-24T12:35:31;19.30;59.50
16823;DHT22;8528;49.976;11.858;2023-04-24T12:38:09;18.20;63.10
16823;DHT22;8528;49.976;11.858;2023-04-24T12:40:36;16.90;65.00
16823;DHT22;8528;49.976;11.858;2023-04-24T12:43:16;15.80;68.40
16823;DHT22;8528;49.976;11.858;2023-04-24T12:45:43;15.30;71.10
16823;DHT22;8528;49.976;11.858;2023-04-24T12:48:12;15.20;73.50
16823;DHT22;8528;49.976;11.858;2023-04-24T12:50:40;14.80;75.50
16823;DHT22;8528;49.976;11.858;2023-04-24T12:53:10;14.40;77.90
16823;DHT22;8528;49.976;11.858;2023-04-24T12:55:37;14.00;79.00
16823;DHT22;8528;49.976;11.858;2023-04-24T12:58:03;13.40;81.10
16823;DHT22;8528;49.976;11.858;2023-04-24T13:00:30;13.10;83.70
16823;DHT22;8528;49.976;11.858;2023-04-24T13:02:57;12.70;85.90
16823;DHT22;8528;49.976;11.858;2023-04-24T13:05:24;12.70;87.90
16823;DHT22;8528;49.976;11.858;2023-04-24T13:07:51;12.80;86.90
16823;DHT22;8528;49.976;11.858;2023-04-24T13:10:18;13.30;85.90
16823;DHT22;8528;49.976;11.858;2023-04-24T13:12:45;14.40;85.10
16823;DHT22;8528;49.976;11.858;2023-04-24T13:15:12;15.70;79.70
16823;DHT22;8528;49.976;11.858;2023-04-24T13:17:40;16.20;76.40
16823;DHT22;8528;49.976;11.858;2023-04-24T13:20:07;15.60;78.10
16823;DHT22;8528;49.976;11.858;2023-04-24T13:22:34;15.20;79.30
16823;DHT22;8528;49.976;11.858;2023-04-24T13:25:02;15.00;80.30
16823;DHT22;8528;49.976;11.858;2023-04-24T13:27:29;14.60;80.60
16823;DHT22;8528;49.976;11.858;2023-04-24T13:29:55;14.20;84.50
16823;DHT22;8528;49.976;11.858;2023-04-24T13:32:22;14.00;83.90
16823;DHT22;8528;49.976;11.858;2023-04-24T13:34:49;13.60;84.30
16823;DHT22;8528;49.976;11.858;2023-04-24T13:37:16;13.30;85.70
16823;DHT22;8528;49.976;11.858;2023-04-24T13:39:43;13.00;85.70
16823;DHT22;8528;49.976;11.858;2023-04-24T13:42:09;12.70;87.70
16823;DHT22;8528;49.976;11.858;2023-04-24T13:44:37;12.80;88.20
16823;DHT22;8528;49.976;11.858;2023-04-24T13:47:04;13.10;87.50
16823;DHT22;8528;49.976;11.858;2023-04-24T13:49:30;13.40;86.70
16823;DHT22;8528;49.976;11.858;2023-04-24T13:51:57;13.50;87.60
16823;DHT22;8528;49.976;11.858;2023-04-24T13:54:24;13.60;90.30
16823;DHT22;8528;49.976;11.858;2023-04-24T13:56:52;13.90;88.80
16823;DHT22;8528;49.976;11.858;2023-04-24T13:59:20;13.80;87.10
16823;DHT22;8528;49.976;11.858;2023-04-24T14:01:47;13.70;86.00
16823;DHT22;8528;49.976;11.858;2023-04-24T14:04:15;13.40;87.10
16823;DHT22;8528;49.976;11.858;2023-04-24T14:06:42;13.40;88.30
16823;DHT22;8528;49.976;11.858;2023-04-24T14:09:09;13.10;88.60
16823;DHT22;8528;49.976;11.858;2023-04-24T14:11:36;12.70;89.50
16823;DHT22;8528;49.976;11.858;2023-04-24T14:14:03;12.60;90.70
16823;DHT22;8528;49.976;11.858;2023-04-24T14:16:29;12.50;91.20
16823;DHT22;8528;49.976;11.858;2023-04-24T14:18:57;12.50;91.40
16823;DHT22;8528;49.976;11.858;2023-04-24T14:21:24;12.60;92.20
16823;DHT22;8528;49.976;11.858;2023-04-24T14:23:50;12.80;91.80
16823;DHT22;8528;49.976;11.858;2023-04-24T14:26:17;13.00;91.00
16823;DHT22;8528;49.976;11.858;2023-04-24T14:28:44;13.20;91.30
16823;DHT22;8528;49.976;11.858;2023-04-24T14:31:11;13.40;90.40
16823;DHT22;8528;49.976;11.858;2023-04-24T14:33:38;13.40;90.30
16823;DHT22;8528;49.976;11.858;2023-04-24T14:36:05;13.20;90.10
16823;DHT22;8528;49.976;11.858;2023-04-24T14:38:32;13.10;90.80
16823;DHT22;8528;49.976;11.858;2023-04-24T14:40:59;13.00;91.40
16823;DHT22;8528;49.976;11.858;2023-04-24T14:43:28;13.00;91.30
16823;DHT22;8528;49.976;11.858;2023-04-24T14:45:55;12.90;90.70
16823;DHT22;8528;49.976;11.858;2023-04-24T14:48:22;12.70;90.80
16823;DHT22;8528;49.976;11.858;2023-04-24T14:50:48;12.60;92.10
16823;DHT22;8528;49.976;11.858;2023-04-24T14:53:15;12.60;92.00
16823;DHT22;8528;49.976;11.858;2023-04-24T14:55:42;12.80;92.10
16823;DHT22;8528;49.976;11.858;2023-04-24T14:58:09;12.80;92.10
16823;DHT22;8528;49.976;11.858;2023-04-24T15:00:36;12.80;91.60
16823;DHT22;8528;49.976;11.858;2023-04-24T15:03:03;12.60;91.10
16823;DHT22;8528;49.976;11.858;2023-04-24T15:05:31;12.30;91.70
16823;DHT22;8528;49.976;11.858;2023-04-24T15:07:58;12.00;92.20
16823;DHT22;8528;49.976;11.858;2023-04-24T15:10:25;11.70;94.30
16823;DHT22;8528;49.976;11.858;2023-04-24T15:12:52;11.40;96.40
16823;DHT22;8528;49.976;11.858;2023-04-24T15:15:19;11.20;96.60
16823;DHT22;8528;49.976;11.858;2023-04-24T15:17:46;11.10;98.50
16823;DHT22;8528;49.976;11.858;2023-04-24T15:20:13;11.10;97.80
16823;DHT22;8528;49.976;11.858;2023-04-24T15:22:39;11.00;97.80
16823;DHT22;8528;49.976;11.858;2023-04-24T15:25:07;10.90;98.20
16823;DHT22;8528;49.976;11.858;2023-04-24T15:27:44;10.70;99.90
16823;DHT22;8528;49.976;11.858;2023-04-24T15:30:12;10.50;99.90
16823;DHT22;8528;49.976;11.858;2023-04-24T15:32:40;10.10;99.90
16823;DHT22;8528;49.976;11.858;2023-04-24T15:35:07;9.70;99.90
16823;DHT22;8528;49.976;11.858;2023-04-24T15:37:37;9.40;99.90
16823;DHT22;8528;49.976;11.858;2023-04-24T15:40:05;9.20;99.90
16823;DHT22;8528;49.976;11.858;2023-04-24T15:42:34;9.10;99.90
16823;DHT22;8528;49.976;11.858;2023-04-24T15:45:01;9.00;99.90
16823;DHT22;8528;49.976;11.858;2023-04-24T15:47:27;8.90;99.90
16823;DHT22;8528;49.976;11.858;2023-04-24T15:49:55;8.80;99.90
16823;DHT22;8528;49.976;11.858;2023-04-24T15:52:23;8.80;99.90
16823;DHT22;8528;49.976;11.858;2023-04-24T15:54:50;8.80;99.90